sensor_id;sensor_type;location;lat;lon;timestamp;P1;durP1;ratioP1;P2;durP2;ratioP2
43152;SDS011;28756;49.064;9.290;2024-03-25T00:00:31;2.58;;;1.60;;
43152;SDS011;28756;49.064;9.290;2024-03-25T00:02:58;2.72;;;1.80;;
43152;SDS011;28756;49.064;9.290;2024-03-25T00:05:23;4.10;;;1.80;;
43152;SDS011;28756;49.064;9.290;2024-03-25T00:07:51;2.88;;;1.40;;
43152;SDS011;28756;49.064;9.290;2024-03-25T00:10:17;3.42;;;1.80;;
43152;SDS011;28756;49.064;9.290;2024-03-25T00:12:45;5.00;;;2.13;;
43152;SDS011;28756;49.064;9.290;2024-03-25T00:15:12;3.95;;;2.08;;
43152;SDS011;28756;49.064;9.290;2024-03-25T00:17:38;7.53;;;2.08;;
43152;SDS011;28756;49.064;9.290;2024-03-25T00:20:04;3.70;;;1.75;;
43152;SDS011;28756;49.064;9.290;2024-03-25T00:22:34;4.72;;;1.95;;
43152;SDS011;28756;49.064;9.290;2024-03-25T00:25:00;2.90;;;1.58;;
43152;SDS011;28756;49.064;9.290;2024-03-25T00:27:25;3.53;;;1.77;;
43152;SDS011;28756;49.064;9.290;2024-03-25T00:29:51;4.03;;;1.65;;
43152;SDS011;28756;49.064;9.290;2024-03-25T00:32:17;3.25;;;1.70;;
43152;SDS011;28756;49.064;9.290;2024-03-25T00:34:43;4.40;;;2.10;;
43152;SDS011;28756;49.064;9.290;2024-03-25T00:37:08;4.43;;;1.85;;
43152;SDS011;28756;49.064;9.290;2024-03-25T00:39:34;4.05;;;1.63;;
43152;SDS011;28756;49.064;9.290;2024-03-25T00:42:00;3.50;;;1.77;;
43152;SDS011;28756;49.064;9.290;2024-03-25T00:44:26;4.38;;;2.10;;
43152;SDS011;28756;49.064;9.290;2024-03-25T00:46:52;3.70;;;1.80;;
43152;SDS011;28756;49.064;9.290;2024-03-25T00:49:18;3.58;;;1.83;;
43152;SDS011;28756;49.064;9.290;2024-03-25T00:51:43;3.65;;;1.90;;
43152;SDS011;28756;49.064;9.290;2024-03-25T00:54:09;4.45;;;2.00;;
43152;SDS011;28756;49.064;9.290;2024-03-25T00:56:35;2.25;;;1.63;;
43152;SDS011;28756;49.064;9.290;2024-03-25T00:59:01;4.78;;;1.80;;
43152;SDS011;28756;49.064;9.290;2024-03-25T01:01:34;5.05;;;1.70;;
43152;SDS011;28756;49.064;9.290;2024-03-25T01:04:01;3.75;;;2.00;;
43152;SDS011;28756;49.064;9.290;2024-03-25T01:06:27;5.18;;;2.13;;
43152;SDS011;28756;49.064;9.290;2024-03-25T01:08:53;3.88;;;1.90;;
43152;SDS011;28756;49.064;9.290;2024-03-25T01:11:18;3.53;;;1.85;;
43152;SDS011;28756;49.064;9.290;2024-03-25T01:13:44;4.38;;;1.70;;
43152;SDS011;28756;49.064;9.290;2024-03-25T01:16:11;2.88;;;1.50;;
43152;SDS011;28756;49.064;9.290;2024-03-25T01:18:37;3.35;;;1.70;;
43152;SDS011;28756;49.064;9.290;2024-03-25T01:21:03;3.55;;;1.90;;
43152;SDS011;28756;49.064;9.290;2024-03-25T01:23:29;2.65;;;1.75;;
43152;SDS011;28756;49.064;9.290;2024-03-25T01:25:55;4.35;;;2.03;;
43152;SDS011;28756;49.064;9.290;2024-03-25T01:28:21;3.88;;;1.80;;
43152;SDS011;28756;49.064;9.290;2024-03-25T01:30:47;3.72;;;1.65;;
43152;SDS011;28756;49.064;9.290;2024-03-25T01:33:16;3.60;;;1.90;;
43152;SDS011;28756;49.064;9.290;2024-03-25T01:35:42;4.05;;;1.90;;
43152;SDS011;28756;49.064;9.290;2024-03-25T01:38:08;3.53;;;1.90;;
43152;SDS011;28756;49.064;9.290;2024-03-25T01:40:34;3.38;;;1.80;;
43152;SDS011;28756;49.064;9.290;2024-03-25T01:43:00;5.53;;;2.08;;
43152;SDS011;28756;49.064;9.290;2024-03-25T01:45:34;5.80;;;2.05;;
43152;SDS011;28756;49.064;9.290;2024-03-25T01:48:02;2.95;;;1.77;;
43152;SDS011;28756;49.064;9.290;2024-03-25T01:50:32;6.25;;;2.33;;
43152;SDS011;28756;49.064;9.290;2024-03-25T01:53:02;4.38;;;2.08;;
43152;SDS011;28756;49.064;9.290;2024-03-25T01:55:29;4.10;;;1.90;;
43152;SDS011;28756;49.064;9.290;2024-03-25T01:57:59;2.83;;;1.98;;
43152;SDS011;28756;49.064;9.290;2024-03-25T02:00:25;3.75;;;2.03;;
43152;SDS011;28756;49.064;9.290;2024-03-25T02:02:52;5.38;;;2.53;;
43152;SDS011;28756;49.064;9.290;2024-03-25T02:05:19;6.68;;;2.40;;
43152;SDS011;28756;49.064;9.290;2024-03-25T02:07:46;3.50;;;2.10;;
43152;SDS011;28756;49.064;9.290;2024-03-25T02:10:13;5.05;;;2.38;;
43152;SDS011;28756;49.064;9.290;2024-03-25T02:12:40;4.97;;;2.60;;
43152;SDS011;28756;49.064;9.290;2024-03-25T02:15:10;3.20;;;1.92;;
43152;SDS011;28756;49.064;9.290;2024-03-25T02:17:38;4.43;;;2.28;;
43152;SDS011;28756;49.064;9.290;2024-03-25T02:20:04;4.78;;;2.25;;
43152;SDS011;28756;49.064;9.290;2024-03-25T02:22:35;5.28;;;1.90;;
43152;SDS011;28756;49.064;9.290;2024-03-25T02:25:01;5.85;;;2.05;;
43152;SDS011;28756;49.064;9.290;2024-03-25T02:27:33;6.53;;;2.20;;
43152;SDS011;28756;49.064;9.290;2024-03-25T02:30:04;3.75;;;2.22;;
43152;SDS011;28756;49.064;9.290;2024-03-25T02:32:37;5.55;;;2.40;;
43152;SDS011;28756;49.064;9.290;2024-03-25T02:35:04;4.65;;;2.22;;
43152;SDS011;28756;49.064;9.290;2024-03-25T02:37:35;5.80;;;2.72;;
43152;SDS011;28756;49.064;9.290;2024-03-25T02:40:04;4.68;;;2.20;;
43152;SDS011;28756;49.064;9.290;2024-03-25T02:42:32;3.40;;;2.30;;
43152;SDS011;28756;49.064;9.290;2024-03-25T02:45:02;5.45;;;2.50;;
43152;SDS011;28756;49.064;9.290;2024-03-25T02:47:28;2.60;;;1.70;;
43152;SDS011;28756;49.064;9.290;2024-03-25T02:49:54;6.35;;;2.63;;
43152;SDS011;28756;49.064;9.290;2024-03-25T02:52:20;3.38;;;2.13;;
43152;SDS011;28756;49.064;9.290;2024-03-25T02:54:46;5.00;;;2.05;;
43152;SDS011;28756;49.064;9.290;2024-03-25T02:57:12;5.53;;;2.55;;
43152;SDS011;28756;49.064;9.290;2024-03-25T02:59:37;5.47;;;2.30;;
43152;SDS011;28756;49.064;9.290;2024-03-25T03:02:03;5.30;;;2.47;;
43152;SDS011;28756;49.064;9.290;2024-03-25T03:04:29;4.88;;;2.20;;
43152;SDS011;28756;49.064;9.290;2024-03-25T03:06:55;4.60;;;2.53;;
43152;SDS011;28756;49.064;9.290;2024-03-25T03:09:22;3.97;;;2.30;;
43152;SDS011;28756;49.064;9.290;2024-03-25T03:11:47;5.38;;;2.40;;
43152;SDS011;28756;49.064;9.290;2024-03-25T03:14:13;5.32;;;2.20;;
43152;SDS011;28756;49.064;9.290;2024-03-25T03:16:39;6.45;;;2.70;;
43152;SDS011;28756;49.064;9.290;2024-03-25T03:19:05;4.20;;;2.30;;
43152;SDS011;28756;49.064;9.290;2024-03-25T03:21:31;4.68;;;2.70;;
43152;SDS011;28756;49.064;9.290;2024-03-25T03:23:57;4.78;;;2.30;;
43152;SDS011;28756;49.064;9.290;2024-03-25T03:26:22;5.53;;;2.30;;
43152;SDS011;28756;49.064;9.290;2024-03-25T03:28:55;3.50;;;2.20;;
43152;SDS011;28756;49.064;9.290;2024-03-25T03:31:22;4.10;;;2.03;;
43152;SDS011;28756;49.064;9.290;2024-03-25T03:33:48;4.10;;;1.77;;
43152;SDS011;28756;49.064;9.290;2024-03-25T03:36:19;5.32;;;2.33;;
43152;SDS011;28756;49.064;9.290;2024-03-25T03:38:47;4.13;;;2.08;;
43152;SDS011;28756;49.064;9.290;2024-03-25T03:41:15;4.30;;;2.10;;
43152;SDS011;28756;49.064;9.290;2024-03-25T03:43:41;2.97;;;1.90;;
43152;SDS011;28756;49.064;9.290;2024-03-25T03:46:07;4.85;;;2.20;;
43152;SDS011;28756;49.064;9.290;2024-03-25T03:48:32;3.10;;;2.00;;
43152;SDS011;28756;49.064;9.290;2024-03-25T03:50:58;4.72;;;2.10;;
43152;SDS011;28756;49.064;9.290;2024-03-25T03:53:24;3.90;;;2.28;;
43152;SDS011;28756;49.064;9.290;2024-03-25T03:55:54;3.22;;;1.90;;
43152;SDS011;28756;49.064;9.290;2024-03-25T03:58:21;4.22;;;2.25;;
43152;SDS011;28756;49.064;9.290;2024-03-25T04:00:48;5.45;;;2.08;;
43152;SDS011;28756;49.064;9.290;2024-03-25T04:03:14;3.28;;;1.77;;
43152;SDS011;28756;49.064;9.290;2024-03-25T04:05:40;3.65;;;2.03;;
43152;SDS011;28756;49.064;9.290;2024-03-25T04:08:06;3.85;;;1.88;;
43152;SDS011;28756;49.064;9.290;2024-03-25T04:10:33;3.20;;;2.00;;
43152;SDS011;28756;49.064;9.290;2024-03-25T04:13:01;2.97;;;1.77;;
43152;SDS011;28756;49.064;9.290;2024-03-25T04:15:32;5.63;;;1.90;;
43152;SDS011;28756;49.064;9.290;2024-03-25T04:18:02;4.18;;;1.80;;
43152;SDS011;28756;49.064;9.290;2024-03-25T04:20:29;4.18;;;1.73;;
43152;SDS011;28756;49.064;9.290;2024-03-25T04:23:00;3.75;;;1.80;;
43152;SDS011;28756;49.064;9.290;2024-03-25T04:25:26;3.63;;;1.85;;
43152;SDS011;28756;49.064;9.290;2024-03-25T04:27:52;5.82;;;2.40;;
43152;SDS011;28756;49.064;9.290;2024-03-25T04:30:17;3.17;;;1.77;;
43152;SDS011;28756;49.064;9.290;2024-03-25T04:32:43;5.68;;;2.17;;
43152;SDS011;28756;49.064;9.290;2024-03-25T04:35:09;3.03;;;1.70;;
43152;SDS011;28756;49.064;9.290;2024-03-25T04:37:36;2.97;;;2.00;;
43152;SDS011;28756;49.064;9.290;2024-03-25T04:40:02;3.35;;;1.88;;
43152;SDS011;28756;49.064;9.290;2024-03-25T04:42:28;4.20;;;1.85;;
43152;SDS011;28756;49.064;9.290;2024-03-25T04:44:54;4.25;;;2.10;;
43152;SDS011;28756;49.064;9.290;2024-03-25T04:47:20;3.28;;;1.83;;
43152;SDS011;28756;49.064;9.290;2024-03-25T04:49:46;3.00;;;1.80;;
43152;SDS011;28756;49.064;9.290;2024-03-25T04:52:12;3.85;;;1.75;;
43152;SDS011;28756;49.064;9.290;2024-03-25T04:54:39;5.63;;;2.80;;
43152;SDS011;28756;49.064;9.290;2024-03-25T04:57:05;2.88;;;1.80;;
43152;SDS011;28756;49.064;9.290;2024-03-25T04:59:31;2.90;;;1.73;;
43152;SDS011;28756;49.064;9.290;2024-03-25T05:01:58;4.88;;;2.50;;
43152;SDS011;28756;49.064;9.290;2024-03-25T05:04:24;5.00;;;2.10;;
43152;SDS011;28756;49.064;9.290;2024-03-25T05:06:50;2.53;;;1.80;;
43152;SDS011;28756;49.064;9.290;2024-03-25T05:09:16;4.00;;;2.10;;
43152;SDS011;28756;49.064;9.290;2024-03-25T05:11:42;3.60;;;1.90;;
43152;SDS011;28756;49.064;9.290;2024-03-25T05:14:08;4.72;;;2.50;;
43152;SDS011;28756;49.064;9.290;2024-03-25T05:16:34;4.10;;;2.40;;
43152;SDS011;28756;49.064;9.290;2024-03-25T05:19:01;4.55;;;2.00;;
43152;SDS011;28756;49.064;9.290;2024-03-25T05:21:29;4.55;;;1.70;;
43152;SDS011;28756;49.064;9.290;2024-03-25T05:23:56;3.75;;;2.15;;
43152;SDS011;28756;49.064;9.290;2024-03-25T05:26:22;4.85;;;2.20;;
43152;SDS011;28756;49.064;9.290;2024-03-25T05:28:57;2.17;;;1.77;;
43152;SDS011;28756;49.064;9.290;2024-03-25T05:31:23;3.38;;;2.08;;
43152;SDS011;28756;49.064;9.290;2024-03-25T05:33:49;3.53;;;2.05;;
43152;SDS011;28756;49.064;9.290;2024-03-25T05:36:15;2.92;;;2.20;;
43152;SDS011;28756;49.064;9.290;2024-03-25T05:38:42;6.43;;;2.60;;
43152;SDS011;28756;49.064;9.290;2024-03-25T05:41:08;3.47;;;2.50;;
43152;SDS011;28756;49.064;9.290;2024-03-25T05:43:35;3.85;;;2.28;;
43152;SDS011;28756;49.064;9.290;2024-03-25T05:46:01;2.85;;;2.20;;
43152;SDS011;28756;49.064;9.290;2024-03-25T05:48:26;4.25;;;3.00;;
43152;SDS011;28756;49.064;9.290;2024-03-25T05:50:59;4.47;;;3.38;;
43152;SDS011;28756;49.064;9.290;2024-03-25T05:53:32;3.65;;;2.78;;
43152;SDS011;28756;49.064;9.290;2024-03-25T05:56:01;5.65;;;3.13;;
43152;SDS011;28756;49.064;9.290;2024-03-25T05:58:27;4.20;;;3.05;;
43152;SDS011;28756;49.064;9.290;2024-03-25T06:00:53;5.00;;;2.80;;
43152;SDS011;28756;49.064;9.290;2024-03-25T06:03:22;5.82;;;3.25;;
43152;SDS011;28756;49.064;9.290;2024-03-25T06:05:48;5.97;;;3.17;;
43152;SDS011;28756;49.064;9.290;2024-03-25T06:08:14;5.80;;;3.50;;
43152;SDS011;28756;49.064;9.290;2024-03-25T06:10:46;6.35;;;3.63;;
43152;SDS011;28756;49.064;9.290;2024-03-25T06:13:12;4.45;;;3.45;;
43152;SDS011;28756;49.064;9.290;2024-03-25T06:15:38;7.40;;;4.45;;
43152;SDS011;28756;49.064;9.290;2024-03-25T06:18:03;5.80;;;4.32;;
43152;SDS011;28756;49.064;9.290;2024-03-25T06:20:29;7.82;;;4.10;;
43152;SDS011;28756;49.064;9.290;2024-03-25T06:22:55;11.38;;;7.18;;
43152;SDS011;28756;49.064;9.290;2024-03-25T06:25:20;10.60;;;7.07;;
43152;SDS011;28756;49.064;9.290;2024-03-25T06:27:46;11.90;;;6.85;;
43152;SDS011;28756;49.064;9.290;2024-03-25T06:30:12;29.02;;;15.82;;
43152;SDS011;28756;49.064;9.290;2024-03-25T06:32:57;12.05;;;7.63;;
43152;SDS011;28756;49.064;9.290;2024-03-25T06:35:44;7.82;;;4.82;;
43152;SDS011;28756;49.064;9.290;2024-03-25T06:38:13;4.70;;;3.53;;
43152;SDS011;28756;49.064;9.290;2024-03-25T06:40:38;3.97;;;3.13;;
43152;SDS011;28756;49.064;9.290;2024-03-25T06:43:04;5.72;;;4.03;;
43152;SDS011;28756;49.064;9.290;2024-03-25T06:45:30;6.78;;;3.38;;
43152;SDS011;28756;49.064;9.290;2024-03-25T06:47:56;4.47;;;2.90;;
43152;SDS011;28756;49.064;9.290;2024-03-25T06:50:22;5.57;;;2.75;;
43152;SDS011;28756;49.064;9.290;2024-03-25T06:52:49;6.05;;;2.60;;
43152;SDS011;28756;49.064;9.290;2024-03-25T06:55:15;4.68;;;2.60;;
43152;SDS011;28756;49.064;9.290;2024-03-25T06:57:41;3.58;;;2.38;;
43152;SDS011;28756;49.064;9.290;2024-03-25T07:00:06;5.35;;;2.72;;
43152;SDS011;28756;49.064;9.290;2024-03-25T07:02:38;6.30;;;2.70;;
43152;SDS011;28756;49.064;9.290;2024-03-25T07:05:04;4.60;;;2.42;;
43152;SDS011;28756;49.064;9.290;2024-03-25T07:07:31;4.40;;;2.50;;
43152;SDS011;28756;49.064;9.290;2024-03-25T07:09:57;6.28;;;2.92;;
43152;SDS011;28756;49.064;9.290;2024-03-25T07:12:23;4.45;;;2.17;;
43152;SDS011;28756;49.064;9.290;2024-03-25T07:14:48;5.75;;;2.38;;
43152;SDS011;28756;49.064;9.290;2024-03-25T07:17:14;4.18;;;2.40;;
43152;SDS011;28756;49.064;9.290;2024-03-25T07:19:40;4.85;;;2.38;;
43152;SDS011;28756;49.064;9.290;2024-03-25T07:22:06;10.30;;;3.00;;
43152;SDS011;28756;49.064;9.290;2024-03-25T07:24:32;5.18;;;2.30;;
43152;SDS011;28756;49.064;9.290;2024-03-25T07:26:58;4.88;;;2.22;;
43152;SDS011;28756;49.064;9.290;2024-03-25T07:29:23;5.38;;;2.10;;
43152;SDS011;28756;49.064;9.290;2024-03-25T07:31:49;3.72;;;2.45;;
43152;SDS011;28756;49.064;9.290;2024-03-25T07:34:15;3.63;;;2.00;;
43152;SDS011;28756;49.064;9.290;2024-03-25T07:36:41;4.40;;;2.65;;
43152;SDS011;28756;49.064;9.290;2024-03-25T07:39:07;5.25;;;2.80;;
43152;SDS011;28756;49.064;9.290;2024-03-25T07:41:35;4.47;;;2.60;;
43152;SDS011;28756;49.064;9.290;2024-03-25T07:44:02;4.88;;;2.20;;
43152;SDS011;28756;49.064;9.290;2024-03-25T07:46:29;5.30;;;2.30;;
43152;SDS011;28756;49.064;9.290;2024-03-25T07:49:00;3.80;;;2.30;;
43152;SDS011;28756;49.064;9.290;2024-03-25T07:51:26;4.05;;;2.10;;
43152;SDS011;28756;49.064;9.290;2024-03-25T07:53:52;9.63;;;2.88;;
43152;SDS011;28756;49.064;9.290;2024-03-25T07:56:17;5.70;;;1.95;;
43152;SDS011;28756;49.064;9.290;2024-03-25T07:58:46;4.88;;;1.92;;
43152;SDS011;28756;49.064;9.290;2024-03-25T08:01:12;4.30;;;1.77;;
43152;SDS011;28756;49.064;9.290;2024-03-25T08:03:38;3.63;;;1.48;;
43152;SDS011;28756;49.064;9.290;2024-03-25T08:06:04;4.75;;;1.63;;
43152;SDS011;28756;49.064;9.290;2024-03-25T08:08:31;4.60;;;1.95;;
43152;SDS011;28756;49.064;9.290;2024-03-25T08:10:59;4.15;;;1.58;;
43152;SDS011;28756;49.064;9.290;2024-03-25T08:13:25;4.13;;;1.50;;
43152;SDS011;28756;49.064;9.290;2024-03-25T08:15:52;3.35;;;1.50;;
43152;SDS011;28756;49.064;9.290;2024-03-25T08:18:17;4.60;;;1.90;;
43152;SDS011;28756;49.064;9.290;2024-03-25T08:20:43;4.10;;;1.60;;
43152;SDS011;28756;49.064;9.290;2024-03-25T08:23:09;4.25;;;1.75;;
43152;SDS011;28756;49.064;9.290;2024-03-25T08:25:34;3.20;;;1.40;;
43152;SDS011;28756;49.064;9.290;2024-03-25T08:28:00;6.07;;;1.98;;
43152;SDS011;28756;49.064;9.290;2024-03-25T08:30:26;3.30;;;1.73;;
43152;SDS011;28756;49.064;9.290;2024-03-25T08:32:52;2.78;;;1.50;;
43152;SDS011;28756;49.064;9.290;2024-03-25T08:35:18;4.50;;;1.48;;
43152;SDS011;28756;49.064;9.290;2024-03-25T08:37:43;4.72;;;1.48;;
43152;SDS011;28756;49.064;9.290;2024-03-25T08:40:09;3.83;;;1.30;;
43152;SDS011;28756;49.064;9.290;2024-03-25T08:42:38;3.33;;;1.40;;
43152;SDS011;28756;49.064;9.290;2024-03-25T08:45:14;5.68;;;1.40;;
43152;SDS011;28756;49.064;9.290;2024-03-25T08:47:39;2.22;;;1.00;;
43152;SDS011;28756;49.064;9.290;2024-03-25T08:50:07;3.28;;;1.40;;
43152;SDS011;28756;49.064;9.290;2024-03-25T08:52:33;3.35;;;1.02;;
43152;SDS011;28756;49.064;9.290;2024-03-25T08:54:59;1.80;;;0.90;;
43152;SDS011;28756;49.064;9.290;2024-03-25T08:57:25;3.22;;;1.08;;
43152;SDS011;28756;49.064;9.290;2024-03-25T08:59:50;2.65;;;1.08;;
43152;SDS011;28756;49.064;9.290;2024-03-25T09:02:16;2.25;;;1.10;;
43152;SDS011;28756;49.064;9.290;2024-03-25T09:04:43;3.47;;;0.90;;
43152;SDS011;28756;49.064;9.290;2024-03-25T09:07:09;3.13;;;1.05;;
43152;SDS011;28756;49.064;9.290;2024-03-25T09:09:35;2.58;;;0.90;;
43152;SDS011;28756;49.064;9.290;2024-03-25T09:12:19;2.25;;;0.85;;
43152;SDS011;28756;49.064;9.290;2024-03-25T09:14:44;2.55;;;0.80;;
43152;SDS011;28756;49.064;9.290;2024-03-25T09:17:10;3.05;;;1.23;;
43152;SDS011;28756;49.064;9.290;2024-03-25T09:19:36;1.38;;;0.73;;
43152;SDS011;28756;49.064;9.290;2024-03-25T09:22:02;2.90;;;0.82;;
43152;SDS011;28756;49.064;9.290;2024-03-25T09:24:28;1.65;;;0.75;;
43152;SDS011;28756;49.064;9.290;2024-03-25T09:26:54;2.00;;;0.90;;
43152;SDS011;28756;49.064;9.290;2024-03-25T09:29:20;3.45;;;1.08;;
43152;SDS011;28756;49.064;9.290;2024-03-25T09:31:45;2.80;;;0.90;;
43152;SDS011;28756;49.064;9.290;2024-03-25T09:34:11;1.95;;;0.80;;
43152;SDS011;28756;49.064;9.290;2024-03-25T09:36:37;2.85;;;1.20;;
43152;SDS011;28756;49.064;9.290;2024-03-25T09:39:03;2.40;;;1.08;;
43152;SDS011;28756;49.064;9.290;2024-03-25T09:41:29;3.13;;;1.00;;
43152;SDS011;28756;49.064;9.290;2024-03-25T09:43:59;1.42;;;0.85;;
43152;SDS011;28756;49.064;9.290;2024-03-25T09:46:25;2.28;;;0.80;;
43152;SDS011;28756;49.064;9.290;2024-03-25T09:48:52;3.33;;;0.98;;
43152;SDS011;28756;49.064;9.290;2024-03-25T09:51:19;2.63;;;1.00;;
43152;SDS011;28756;49.064;9.290;2024-03-25T09:53:45;3.28;;;0.98;;
43152;SDS011;28756;49.064;9.290;2024-03-25T09:56:12;3.42;;;1.60;;
43152;SDS011;28756;49.064;9.290;2024-03-25T09:58:39;3.05;;;0.70;;
43152;SDS011;28756;49.064;9.290;2024-03-25T10:01:05;1.98;;;0.80;;
43152;SDS011;28756;49.064;9.290;2024-03-25T10:03:31;1.92;;;0.75;;
43152;SDS011;28756;49.064;9.290;2024-03-25T10:05:57;1.58;;;0.77;;
43152;SDS011;28756;49.064;9.290;2024-03-25T10:08:22;2.30;;;1.00;;
43152;SDS011;28756;49.064;9.290;2024-03-25T10:10:51;1.85;;;0.70;;
43152;SDS011;28756;49.064;9.290;2024-03-25T10:13:17;2.35;;;0.98;;
43152;SDS011;28756;49.064;9.290;2024-03-25T10:15:43;2.85;;;0.90;;
43152;SDS011;28756;49.064;9.290;2024-03-25T10:18:11;4.18;;;0.77;;
43152;SDS011;28756;49.064;9.290;2024-03-25T10:20:37;1.67;;;0.90;;
43152;SDS011;28756;49.064;9.290;2024-03-25T10:23:03;3.10;;;1.30;;
43152;SDS011;28756;49.064;9.290;2024-03-25T10:25:29;3.30;;;0.85;;
43152;SDS011;28756;49.064;9.290;2024-03-25T10:28:00;2.25;;;1.20;;
43152;SDS011;28756;49.064;9.290;2024-03-25T10:30:27;2.45;;;0.93;;
43152;SDS011;28756;49.064;9.290;2024-03-25T10:33:04;2.17;;;0.90;;
43152;SDS011;28756;49.064;9.290;2024-03-25T10:35:34;2.53;;;1.00;;
43152;SDS011;28756;49.064;9.290;2024-03-25T10:38:09;6.05;;;1.52;;
43152;SDS011;28756;49.064;9.290;2024-03-25T10:40:36;3.95;;;1.02;;
43152;SDS011;28756;49.064;9.290;2024-03-25T10:43:08;2.58;;;1.13;;
43152;SDS011;28756;49.064;9.290;2024-03-25T10:45:40;2.08;;;0.98;;
43152;SDS011;28756;49.064;9.290;2024-03-25T10:51:05;2.67;;;1.17;;
43152;SDS011;28756;49.064;9.290;2024-03-25T10:53:34;1.95;;;0.90;;
43152;SDS011;28756;49.064;9.290;2024-03-25T10:56:01;1.88;;;0.90;;
43152;SDS011;28756;49.064;9.290;2024-03-25T10:58:29;3.20;;;0.98;;
43152;SDS011;28756;49.064;9.290;2024-03-25T11:00:56;2.28;;;1.00;;
43152;SDS011;28756;49.064;9.290;2024-03-25T11:03:22;2.75;;;1.10;;
43152;SDS011;28756;49.064;9.290;2024-03-25T11:05:49;2.90;;;1.20;;
43152;SDS011;28756;49.064;9.290;2024-03-25T11:08:16;3.25;;;1.20;;
43152;SDS011;28756;49.064;9.290;2024-03-25T11:10:46;3.42;;;0.90;;
43152;SDS011;28756;49.064;9.290;2024-03-25T11:13:18;3.17;;;1.10;;
43152;SDS011;28756;49.064;9.290;2024-03-25T11:15:45;3.47;;;1.15;;
43152;SDS011;28756;49.064;9.290;2024-03-25T11:18:14;2.75;;;1.00;;
43152;SDS011;28756;49.064;9.290;2024-03-25T11:20:43;1.80;;;0.70;;
43152;SDS011;28756;49.064;9.290;2024-03-25T11:23:12;2.88;;;0.98;;
43152;SDS011;28756;49.064;9.290;2024-03-25T11:25:39;5.05;;;1.15;;
43152;SDS011;28756;49.064;9.290;2024-03-25T11:28:08;1.67;;;0.75;;
43152;SDS011;28756;49.064;9.290;2024-03-25T11:30:35;2.13;;;1.00;;
43152;SDS011;28756;49.064;9.290;2024-03-25T11:33:06;3.22;;;1.35;;
43152;SDS011;28756;49.064;9.290;2024-03-25T11:35:38;2.30;;;0.90;;
43152;SDS011;28756;49.064;9.290;2024-03-25T11:38:04;2.85;;;0.88;;
43152;SDS011;28756;49.064;9.290;2024-03-25T11:40:30;2.55;;;0.95;;
43152;SDS011;28756;49.064;9.290;2024-03-25T11:42:56;4.40;;;1.00;;
43152;SDS011;28756;49.064;9.290;2024-03-25T11:45:23;2.42;;;1.00;;
43152;SDS011;28756;49.064;9.290;2024-03-25T11:47:50;2.83;;;1.13;;
43152;SDS011;28756;49.064;9.290;2024-03-25T11:50:16;2.92;;;1.00;;
43152;SDS011;28756;49.064;9.290;2024-03-25T11:52:44;1.13;;;0.75;;
43152;SDS011;28756;49.064;9.290;2024-03-25T11:55:10;2.67;;;1.10;;
43152;SDS011;28756;49.064;9.290;2024-03-25T11:57:40;2.75;;;1.10;;
43152;SDS011;28756;49.064;9.290;2024-03-25T12:00:07;1.67;;;0.90;;
43152;SDS011;28756;49.064;9.290;2024-03-25T12:02:42;2.25;;;0.90;;
43152;SDS011;28756;49.064;9.290;2024-03-25T12:05:10;2.28;;;0.98;;
43152;SDS011;28756;49.064;9.290;2024-03-25T12:07:37;1.88;;;0.90;;
43152;SDS011;28756;49.064;9.290;2024-03-25T12:10:03;2.78;;;0.90;;
43152;SDS011;28756;49.064;9.290;2024-03-25T12:12:48;2.00;;;0.85;;
43152;SDS011;28756;49.064;9.290;2024-03-25T12:15:15;2.28;;;1.00;;
43152;SDS011;28756;49.064;9.290;2024-03-25T12:17:41;3.47;;;1.00;;
43152;SDS011;28756;49.064;9.290;2024-03-25T12:20:08;2.25;;;1.00;;
43152;SDS011;28756;49.064;9.290;2024-03-25T12:22:34;2.05;;;1.00;;
43152;SDS011;28756;49.064;9.290;2024-03-25T12:25:02;2.35;;;0.90;;
43152;SDS011;28756;49.064;9.290;2024-03-25T12:27:31;1.50;;;0.80;;
43152;SDS011;28756;49.064;9.290;2024-03-25T12:35:02;1.98;;;0.98;;
43152;SDS011;28756;49.064;9.290;2024-03-25T12:37:32;2.13;;;1.02;;
43152;SDS011;28756;49.064;9.290;2024-03-25T12:39:58;2.63;;;1.00;;
43152;SDS011;28756;49.064;9.290;2024-03-25T12:42:24;1.33;;;0.80;;
43152;SDS011;28756;49.064;9.290;2024-03-25T12:44:52;1.23;;;0.75;;
43152;SDS011;28756;49.064;9.290;2024-03-25T12:47:19;2.42;;;0.93;;
43152;SDS011;28756;49.064;9.290;2024-03-25T12:49:45;1.80;;;0.90;;
43152;SDS011;28756;49.064;9.290;2024-03-25T12:52:11;2.53;;;1.00;;
43152;SDS011;28756;49.064;9.290;2024-03-25T12:54:37;1.85;;;0.80;;
43152;SDS011;28756;49.064;9.290;2024-03-25T12:57:04;2.42;;;1.00;;
43152;SDS011;28756;49.064;9.290;2024-03-25T12:59:30;1.90;;;0.80;;
43152;SDS011;28756;49.064;9.290;2024-03-25T13:01:56;2.30;;;0.90;;
43152;SDS011;28756;49.064;9.290;2024-03-25T13:04:21;2.30;;;0.90;;
43152;SDS011;28756;49.064;9.290;2024-03-25T13:06:47;1.23;;;0.90;;
43152;SDS011;28756;49.064;9.290;2024-03-25T13:09:13;1.35;;;0.80;;
43152;SDS011;28756;49.064;9.290;2024-03-25T13:11:38;1.92;;;1.08;;
43152;SDS011;28756;49.064;9.290;2024-03-25T13:14:04;2.58;;;0.93;;
43152;SDS011;28756;49.064;9.290;2024-03-25T13:16:33;2.03;;;0.90;;
43152;SDS011;28756;49.064;9.290;2024-03-25T13:18:59;2.38;;;1.08;;
43152;SDS011;28756;49.064;9.290;2024-03-25T13:21:25;2.45;;;1.13;;
43152;SDS011;28756;49.064;9.290;2024-03-25T13:23:51;2.72;;;1.10;;
43152;SDS011;28756;49.064;9.290;2024-03-25T13:26:20;2.05;;;1.13;;
43152;SDS011;28756;49.064;9.290;2024-03-25T13:28:46;1.38;;;0.80;;
43152;SDS011;28756;49.064;9.290;2024-03-25T13:31:12;1.10;;;0.65;;
43152;SDS011;28756;49.064;9.290;2024-03-25T13:33:37;2.22;;;1.00;;
43152;SDS011;28756;49.064;9.290;2024-03-25T13:36:06;1.55;;;0.60;;
43152;SDS011;28756;49.064;9.290;2024-03-25T13:38:32;2.55;;;1.08;;
43152;SDS011;28756;49.064;9.290;2024-03-25T13:40:59;2.15;;;0.90;;
43152;SDS011;28756;49.064;9.290;2024-03-25T13:43:26;2.05;;;0.98;;
43152;SDS011;28756;49.064;9.290;2024-03-25T13:45:52;1.75;;;0.77;;
43152;SDS011;28756;49.064;9.290;2024-03-25T13:48:18;1.40;;;0.80;;
43152;SDS011;28756;49.064;9.290;2024-03-25T13:50:44;2.60;;;0.77;;
43152;SDS011;28756;49.064;9.290;2024-03-25T13:53:10;1.48;;;0.70;;
43152;SDS011;28756;49.064;9.290;2024-03-25T13:55:35;1.40;;;0.95;;
43152;SDS011;28756;49.064;9.290;2024-03-25T13:58:01;1.85;;;0.80;;
43152;SDS011;28756;49.064;9.290;2024-03-25T14:00:28;2.55;;;0.90;;
43152;SDS011;28756;49.064;9.290;2024-03-25T14:02:54;2.47;;;0.90;;
43152;SDS011;28756;49.064;9.290;2024-03-25T14:05:20;1.85;;;0.90;;
43152;SDS011;28756;49.064;9.290;2024-03-25T14:07:48;0.95;;;0.70;;
43152;SDS011;28756;49.064;9.290;2024-03-25T14:10:14;1.77;;;0.70;;
43152;SDS011;28756;49.064;9.290;2024-03-25T14:12:40;1.23;;;0.65;;
43152;SDS011;28756;49.064;9.290;2024-03-25T14:15:06;1.90;;;1.05;;
43152;SDS011;28756;49.064;9.290;2024-03-25T14:17:33;2.15;;;0.88;;
43152;SDS011;28756;49.064;9.290;2024-03-25T14:19:59;3.47;;;0.60;;
43152;SDS011;28756;49.064;9.290;2024-03-25T14:22:25;1.25;;;0.60;;
43152;SDS011;28756;49.064;9.290;2024-03-25T14:24:51;1.70;;;0.60;;
43152;SDS011;28756;49.064;9.290;2024-03-25T14:27:22;1.95;;;0.82;;
43152;SDS011;28756;49.064;9.290;2024-03-25T14:29:51;1.95;;;0.70;;
43152;SDS011;28756;49.064;9.290;2024-03-25T14:32:18;1.30;;;0.80;;
43152;SDS011;28756;49.064;9.290;2024-03-25T14:34:45;1.67;;;0.80;;
43152;SDS011;28756;49.064;9.290;2024-03-25T14:37:12;1.40;;;0.80;;
43152;SDS011;28756;49.064;9.290;2024-03-25T14:39:38;1.42;;;0.80;;
43152;SDS011;28756;49.064;9.290;2024-03-25T14:42:04;0.98;;;0.70;;
43152;SDS011;28756;49.064;9.290;2024-03-25T14:44:32;4.47;;;3.45;;
43152;SDS011;28756;49.064;9.290;2024-03-25T14:46:58;1.70;;;1.40;;
43152;SDS011;28756;49.064;9.290;2024-03-25T14:49:24;2.92;;;1.30;;
43152;SDS011;28756;49.064;9.290;2024-03-25T14:51:50;2.10;;;1.20;;
43152;SDS011;28756;49.064;9.290;2024-03-25T14:54:19;1.33;;;0.93;;